Mission Hill, South Dakota
Current Conditions -  °F | °C
As of 4:15 PM on Sunday 21 Dec 2014 (Local Time) from KYKN Reporting Station
Overcast Overcast  
Wind Chill: 29°   Ceiling: 800
Heat Index: 37°   Visibility: 5mi
Dew Point: 36°   Wind: 15mph
Humidity: 93%   Direction: 180°S
Pressure: 29.59"   Gusts: 26mph
Location:  42.92°N, 97.28°W
Report Text: KYKN 212215Z AUTO 18013G23KT 5SM OVC008 03/02 A2959 RMK AO1
Loading
Personal Weather Stations






























Interactive Weather Map New forecast layout! Learn more

10-Day Weather Forecast

Advertisements
Track Severe Weather on mobile